Rochester, Texas
Current Conditions -  °F | °C
As of 5:58 PM on Saturday 20 Dec 2014 (Local Time) from KDYS Reporting Station
Overcast Overcast  
Wind Chill: 51°   Ceiling: 2800
Heat Index: 51°   Visibility: 10mi
Dew Point: 40°   Wind: 8mph
Humidity: 65%   Direction: 150°SSE
Pressure: 30.09"   Gusts: NA
Location:  33.32°N, 99.86°W
Report Text: KDYS 202358Z AUTO 15007KT 10SM OVC028 11/04 A3009 RMK AO2 SLP184 T01070044 10118 20084 55004 $
Loading
Personal Weather Stations






























Interactive Weather Map New forecast layout! Learn more

10-Day Weather Forecast

Advertisements
Track Severe Weather on mobile